Estación Meteorológica Peña el Pijo (Robertgarden) [ 01/30/23 14:10:39 CET ]

Fecha Hora Presion(HPa) Temp (°C) Humedad % Rocio (°C) Viento ( m/s) Direccion Lluvia 1Hora(mm) Lluvia 24H(mm) LLuvia Total(mm)
2010-Jan-11 01:01:13 1000.500 -1.4 91 -2.7       0.51 63.19
2010-Jan-11 02:03:21 1000.300 2.5 90 1.0       0.51 63.19
2010-Jan-11 03:01:13 1000.400 2.8 89 1.1       0.51 63.19
2010-Jan-11 04:01:17 1000.700 2.9 89 1.2     1.03 1.55 64.23
2010-Jan-11 05:01:13 1001.100 2.9 87 0.9     1.03 2.59 65.26
2010-Jan-11 06:01:17 1001.100 4.0 85 1.7 1.6 S   2.59 65.26
2010-Jan-11 07:01:14 1001.500 4.1 85 1.8       2.59 65.26
2010-Jan-11 08:01:17 1002.200 4.2 83 1.6       2.59 65.26
2010-Jan-11 09:01:17 1002.600 3.6 85 1.3       2.59 65.26
2010-Jan-11 10:01:11 1003.400 3.7 87 1.7       2.59 65.26
2010-Jan-11 11:01:13 1004.400 4.3 86 2.1       2.59 65.26
2010-Jan-11 12:01:17 1005.000 5.9 86 3.7       2.59 65.26
2010-Jan-11 13:01:14 1005.400 7.6 79 4.2       2.59 65.26
2010-Jan-11 14:01:11 1005.400 7.8 77 4.0       2.59 65.26
2010-Jan-11 15:01:11 1005.400 7.6 75 3.5 1.6 SW   2.07 65.26
2010-Jan-11 16:01:15 1005.700 7.3 75 3.1       2.07 65.26
2010-Jan-11 17:01:12 1006.700 6.3 79 2.9       2.07 65.26
2010-Jan-11 18:01:13 1007.300 5.3 82 2.4       2.07 65.26
2010-Jan-11 19:01:17 1008.500 5.0 82 2.1 1.0 E   2.07 65.26
2010-Jan-11 20:01:13 1009.000 4.9 83 2.2       2.07 65.26
2010-Jan-11 21:01:12 1009.600 4.7 82 1.9       2.07 65.26
2010-Jan-11 22:01:17 1010.100 4.8 82 1.9       2.07 65.26
2010-Jan-11 23:01:12 1010.900 5.1 79 1.7       2.07 65.26

Temperatura Máxima:    Temperatura Mínima:-1°
Presión Máxima:1010.900 Hpa    Presión Mínima:1000.300 Hpa


Volver